Time;durP1;ratioP1;P1;durP2;ratioP2;P2;SDS_P1;SDS_P2;PMS_P1;PMS_P2;Temp;Humidity;BMP_temperature;BMP_pressure;BME280_temperature;BME280_humidity;BME280_pressure;Samples;Min_cycle;Max_cycle;Signal;HPM_P1;HPM_P2
2021/03/16 00:00:08;;;;;;;14.65;2.80;;;9.00;99.90;;;;;;5039098;28;20525;-62
2021/03/16 00:02:34;;;;;;;10.48;2.33;;;8.90;99.90;;;;;;5048738;28;20104;-62
2021/03/16 00:05:00;;;;;;;15.20;2.85;;;8.90;99.90;;;;;;5039869;28;20391;-62
2021/03/16 00:07:26;;;;;;;9.75;3.10;;;8.90;99.90;;;;;;5046760;28;20377;-61
2021/03/16 00:09:52;;;;;;;13.15;3.17;;;8.90;99.90;;;;;;5041416;28;20033;-62
2021/03/16 00:12:17;;;;;;;9.85;2.97;;;8.90;99.90;;;;;;5046342;28;20025;-62
2021/03/16 00:14:43;;;;;;;11.90;3.65;;;8.90;99.90;;;;;;5041970;28;20033;-62
2021/03/16 00:17:09;;;;;;;11.57;3.50;;;8.80;99.90;;;;;;5045023;28;20393;-62
2021/03/16 00:19:35;;;;;;;14.93;3.92;;;8.90;99.90;;;;;;5043344;28;20112;-62
2021/03/16 00:22:01;;;;;;;14.50;3.20;;;8.90;99.90;;;;;;5042779;28;20569;-62
2021/03/16 00:24:27;;;;;;;11.82;3.72;;;8.80;99.90;;;;;;5044446;28;20040;-62
2021/03/16 00:26:53;;;;;;;12.02;2.83;;;8.90;99.90;;;;;;5042715;28;20385;-62
2021/03/16 00:29:18;;;;;;;10.68;3.65;;;8.80;99.90;;;;;;5045085;28;20047;-61
2021/03/16 00:31:44;;;;;;;10.27;2.55;;;8.80;99.90;;;;;;5041248;28;20059;-61
2021/03/16 00:34:10;;;;;;;13.93;2.78;;;8.80;99.90;;;;;;5046008;28;20032;-61
2021/03/16 00:36:36;;;;;;;12.43;2.50;;;8.80;99.90;;;;;;5039714;28;20507;-62
2021/03/16 00:39:02;;;;;;;12.23;3.00;;;8.80;99.90;;;;;;5045823;28;20581;-62
2021/03/16 00:41:28;;;;;;;10.82;2.67;;;8.80;99.90;;;;;;5040493;28;20021;-61
2021/03/16 00:43:54;;;;;;;10.65;2.83;;;8.80;99.90;;;;;;5040292;28;20036;-62
2021/03/16 00:46:19;;;;;;;12.05;2.75;;;8.80;99.90;;;;;;5040177;28;20025;-62
2021/03/16 00:48:45;;;;;;;14.25;3.20;;;8.80;99.90;;;;;;5045978;28;20310;-62
2021/03/16 00:51:11;;;;;;;11.48;3.35;;;8.90;99.90;;;;;;5039716;28;20025;-62
2021/03/16 00:53:37;;;;;;;17.95;3.80;;;8.80;99.90;;;;;;5046860;28;20033;-62
2021/03/16 00:56:02;;;;;;;13.43;2.85;;;8.80;99.90;;;;;;5039556;28;20029;-62
2021/03/16 00:58:29;;;;;;;8.55;2.25;;;8.80;99.90;;;;;;5048135;28;20025;-62
2021/03/16 01:00:58;;;;;;;9.50;2.83;;;8.70;99.90;;;;;;5040491;28;20511;-61
2021/03/16 01:03:24;;;;;;;10.50;2.78;;;8.70;99.90;;;;;;5048155;28;20025;-62
2021/03/16 01:05:52;;;;;;;12.95;2.60;;;8.60;99.90;;;;;;5037052;28;20052;-62
2021/03/16 01:08:18;;;;;;;10.73;3.20;;;8.60;99.90;;;;;;5048576;28;20029;-62
2021/03/16 01:10:46;;;;;;;11.23;2.95;;;8.60;99.90;;;;;;5037742;28;20025;-62
2021/03/16 01:13:12;;;;;;;11.48;2.78;;;8.70;99.90;;;;;;5049847;28;20101;-62
2021/03/16 01:15:38;;;;;;;11.93;2.97;;;8.70;99.90;;;;;;5036615;28;20468;-62
2021/03/16 01:18:04;;;;;;;10.05;3.05;;;8.70;99.90;;;;;;5049276;28;20029;-62
2021/03/16 01:20:30;;;;;;;14.25;3.53;;;8.50;99.90;;;;;;5035668;28;20033;-62
2021/03/16 01:22:56;;;;;;;11.57;3.10;;;8.50;99.90;;;;;;5049467;28;20029;-62
2021/03/16 01:25:21;;;;;;;13.98;3.53;;;8.50;99.90;;;;;;5036509;28;20116;-62
2021/03/16 01:27:47;;;;;;;15.52;3.08;;;8.50;99.90;;;;;;5049240;28;20021;-61
2021/03/16 01:30:14;;;;;;;12.60;3.22;;;8.50;99.90;;;;;;5037553;28;20029;-62
2021/03/16 01:32:39;;;;;;;10.32;2.88;;;8.50;99.90;;;;;;5050305;28;20398;-62
2021/03/16 01:35:09;;;;;;;14.90;3.17;;;8.50;99.90;;;;;;5042487;28;20029;-62
2021/03/16 01:37:36;;;;;;;15.95;3.72;;;8.40;99.90;;;;;;5050289;28;20071;-62
2021/03/16 01:40:05;;;;;;;14.13;3.30;;;8.30;99.90;;;;;;5042978;28;20038;-62
2021/03/16 01:42:30;;;;;;;14.48;3.47;;;8.30;99.90;;;;;;5049536;28;20057;-62
2021/03/16 01:44:56;;;;;;;16.27;4.13;;;8.30;99.90;;;;;;5037708;28;20068;-62
2021/03/16 01:47:22;;;;;;;18.17;4.18;;;8.30;99.90;;;;;;5049040;28;20097;-62
2021/03/16 01:49:48;;;;;;;15.50;3.78;;;8.00;99.90;;;;;;5044939;28;20056;-62
2021/03/16 01:52:14;;;;;;;17.17;3.45;;;8.20;99.90;;;;;;5047392;28;20485;-62
2021/03/16 01:54:41;;;;;;;19.08;3.40;;;8.20;99.90;;;;;;5045518;28;20113;-62
2021/03/16 01:57:10;;;;;;;14.07;3.55;;;8.10;99.90;;;;;;5046926;28;20025;-62
2021/03/16 01:59:35;;;;;;;13.80;3.78;;;8.00;99.90;;;;;;5046142;28;20040;-62
2021/03/16 02:02:02;;;;;;;16.23;3.45;;;8.20;99.90;;;;;;5026400;28;20383;-62
2021/03/16 02:04:28;;;;;;;14.60;3.90;;;8.20;99.90;;;;;;5032979;28;20120;-61
2021/03/16 02:07:01;;;;;;;21.65;3.90;;;8.10;99.90;;;;;;5044265;28;20105;-62
2021/03/16 02:09:49;;;;;;;21.25;3.47;;;8.20;99.90;;;;;;5047218;28;20108;-62
2021/03/16 02:12:38;;;;;;;14.77;3.30;;;8.20;99.90;;;;;;5047762;28;20021;-62
2021/03/16 02:15:10;;;;;;;13.07;3.58;;;8.20;99.90;;;;;;5038106;28;20504;-62
2021/03/16 02:17:36;;;;;;;12.07;2.85;;;8.10;99.90;;;;;;5050402;28;20060;-62
2021/03/16 02:20:46;;;;;;;16.50;3.15;;;8.20;99.90;;;;;;5042265;28;20037;-62
2021/03/16 02:23:20;;;;;;;21.33;4.25;;;8.20;99.90;;;;;;5011891;28;20037;-62
2021/03/16 02:25:57;;;;;;;10.40;3.50;;;8.10;99.90;;;;;;5040332;28;20028;-61
2021/03/16 02:28:35;;;;;;;21.20;3.50;;;8.10;99.90;;;;;;5050736;28;20448;-62
2021/03/16 02:31:02;;;;;;;11.07;3.60;;;8.30;99.90;;;;;;5040131;28;20523;-62
2021/03/16 02:33:33;;;;;;;13.05;4.72;;;8.10;99.90;;;;;;5050199;28;20508;-62
2021/03/16 02:35:59;;;;;;;16.95;3.38;;;8.10;99.90;;;;;;5038750;28;20028;-62
2021/03/16 02:38:31;;;;;;;9.52;3.63;;;8.30;99.90;;;;;;5050475;28;20025;-62
2021/03/16 02:40:58;;;;;;;19.30;3.75;;;8.30;99.90;;;;;;5038611;28;20153;-62
2021/03/16 02:43:25;;;;;;;15.82;4.05;;;8.30;99.90;;;;;;5043317;28;20022;-61
2021/03/16 02:45:51;;;;;;;14.80;3.35;;;8.10;99.90;;;;;;5040109;28;20029;-62
2021/03/16 02:48:19;;;;;;;16.42;3.13;;;8.30;99.90;;;;;;5050779;28;20539;-62
2021/03/16 02:50:47;;;;;;;10.88;3.22;;;8.20;99.90;;;;;;5038773;28;20645;-62
2021/03/16 02:53:15;;;;;;;13.90;3.25;;;8.20;99.90;;;;;;5051265;28;20040;-62
2021/03/16 02:55:41;;;;;;;21.45;4.07;;;8.20;99.90;;;;;;5042490;28;20027;-62
2021/03/16 02:58:09;;;;;;;13.25;3.10;;;8.30;99.90;;;;;;5031866;28;20064;-61
2021/03/16 03:00:36;;;;;;;21.52;3.28;;;8.20;99.90;;;;;;5038006;28;20025;-62
2021/03/16 03:03:03;;;;;;;12.82;3.42;;;8.20;99.90;;;;;;5051320;28;20393;-62
2021/03/16 03:05:29;;;;;;;15.40;3.17;;;8.10;99.90;;;;;;5037652;28;20041;-62
2021/03/16 03:07:56;;;;;;;18.27;3.38;;;8.20;99.90;;;;;;5051234;28;20029;-62
2021/03/16 03:10:23;;;;;;;15.65;3.63;;;8.10;99.90;;;;;;5038706;28;20025;-62
2021/03/16 03:12:51;;;;;;;16.23;3.17;;;8.20;99.90;;;;;;5011496;28;20030;-61
2021/03/16 03:15:17;;;;;;;26.83;3.47;;;8.10;99.90;;;;;;5032942;28;20461;-62
2021/03/16 03:17:43;;;;;;;18.75;3.80;;;8.10;99.90;;;;;;5050420;28;20029;-61
2021/03/16 03:20:11;;;;;;;13.20;3.67;;;8.10;99.90;;;;;;5040087;28;20041;-62
2021/03/16 03:22:42;;;;;;;12.75;3.15;;;8.10;99.90;;;;;;5048673;28;20032;-62
2021/03/16 03:25:16;;;;;;;14.98;3.13;;;8.10;99.90;;;;;;5040186;28;20049;-62
2021/03/16 03:27:47;;;;;;;16.38;3.28;;;8.20;99.90;;;;;;5050026;28;20508;-62
2021/03/16 03:30:14;;;;;;;14.38;3.17;;;8.30;99.90;;;;;;5039590;28;20108;-62
2021/03/16 03:32:41;;;;;;;16.10;3.42;;;8.30;99.90;;;;;;5049589;28;20158;-62
2021/03/16 03:35:08;;;;;;;17.90;3.38;;;8.20;99.90;;;;;;5040044;28;20113;-62
2021/03/16 03:37:34;;;;;;;15.60;3.90;;;8.20;99.90;;;;;;5047742;28;20584;-62
2021/03/16 03:40:03;;;;;;;14.13;3.42;;;8.40;99.90;;;;;;5040516;28;20536;-62
2021/03/16 03:42:30;;;;;;;18.88;3.17;;;8.30;99.90;;;;;;5047709;28;20025;-62
2021/03/16 03:44:58;;;;;;;13.60;3.13;;;8.30;99.90;;;;;;5034931;28;20026;-62
2021/03/16 03:47:24;;;;;;;19.27;4.30;;;8.30;99.90;;;;;;5046955;28;20120;-62
2021/03/16 03:49:51;;;;;;;18.63;3.83;;;8.20;99.90;;;;;;5042210;28;20116;-61
2021/03/16 03:52:18;;;;;;;13.85;3.45;;;8.20;99.90;;;;;;5044768;28;20036;-62
2021/03/16 03:54:45;;;;;;;24.10;3.50;;;8.40;99.90;;;;;;5042720;28;20033;-62
2021/03/16 03:57:13;;;;;;;14.32;4.00;;;8.30;99.90;;;;;;5044679;28;20032;-62
2021/03/16 03:59:41;;;;;;;10.93;3.78;;;8.20;99.90;;;;;;5043346;28;20037;-62
2021/03/16 04:02:09;;;;;;;16.20;3.65;;;8.40;99.90;;;;;;5044349;28;20021;-61
2021/03/16 04:04:37;;;;;;;16.73;3.63;;;8.50;99.90;;;;;;5044044;28;20029;-62
2021/03/16 04:07:03;;;;;;;21.13;3.65;;;8.40;99.90;;;;;;5044768;28;20025;-62
2021/03/16 04:09:31;;;;;;;15.93;3.28;;;8.40;99.90;;;;;;5044687;28;20079;-62
2021/03/16 04:11:57;;;;;;;14.57;3.08;;;8.40;99.90;;;;;;5042889;28;20021;-62
2021/03/16 04:14:24;;;;;;;11.95;3.42;;;8.30;99.90;;;;;;5045600;28;20056;-62
2021/03/16 04:16:50;;;;;;;18.75;3.72;;;8.40;99.90;;;;;;5041594;28;20108;-61
2021/03/16 04:19:16;;;;;;;15.10;3.45;;;8.40;99.90;;;;;;5046394;28;20468;-61
2021/03/16 04:21:43;;;;;;;14.80;3.38;;;8.50;99.90;;;;;;5039828;28;20086;-62
2021/03/16 04:24:10;;;;;;;15.32;3.22;;;8.30;99.90;;;;;;5046241;28;20025;-62
2021/03/16 04:26:36;;;;;;;17.52;3.60;;;8.40;99.90;;;;;;5040767;28;20096;-62
2021/03/16 04:29:01;;;;;;;23.38;4.07;;;8.30;99.90;;;;;;5045863;28;20026;-62
2021/03/16 04:31:27;;;;;;;18.42;3.65;;;8.30;99.90;;;;;;5040700;28;20064;-62
2021/03/16 04:33:52;;;;;;;20.23;4.38;;;8.40;99.90;;;;;;5046317;28;20514;-62
2021/03/16 04:36:18;;;;;;;13.55;3.58;;;8.30;99.90;;;;;;5039866;28;20025;-61
2021/03/16 04:38:44;;;;;;;14.40;3.58;;;8.50;99.90;;;;;;5046298;28;20425;-62
2021/03/16 04:41:09;;;;;;;14.25;3.40;;;8.40;99.90;;;;;;5040178;28;20565;-62
2021/03/16 04:43:40;;;;;;;12.07;3.58;;;8.50;99.90;;;;;;5041873;28;20040;-62
2021/03/16 04:46:06;;;;;;;9.63;3.35;;;8.40;99.90;;;;;;5039503;28;20405;-61
2021/03/16 04:48:32;;;;;;;21.77;3.65;;;8.30;99.90;;;;;;5048278;28;20021;-62
2021/03/16 04:50:57;;;;;;;15.60;3.78;;;8.50;99.90;;;;;;5035463;28;20032;-62
2021/03/16 04:53:23;;;;;;;19.58;3.80;;;8.50;99.90;;;;;;5046946;28;20358;-62
2021/03/16 04:55:48;;;;;;;12.85;3.63;;;8.40;99.90;;;;;;5037946;28;20021;-62
2021/03/16 04:58:14;;;;;;;14.15;3.80;;;8.40;99.90;;;;;;5049475;28;20029;-62
2021/03/16 05:00:40;;;;;;;20.27;3.92;;;8.30;99.90;;;;;;5036588;28;20037;-62
2021/03/16 05:03:05;;;;;;;18.05;3.95;;;8.50;99.90;;;;;;5049464;28;20555;-62
2021/03/16 05:05:31;;;;;;;16.38;3.05;;;8.40;99.90;;;;;;5035826;28;20426;-62
2021/03/16 05:07:57;;;;;;;17.35;3.88;;;8.40;99.90;;;;;;5052029;28;20032;-62
2021/03/16 05:10:22;;;;;;;14.90;2.83;;;8.50;99.90;;;;;;5041192;28;20100;-62
2021/03/16 05:12:48;;;;;;;15.93;3.53;;;8.50;99.90;;;;;;5053204;28;20025;-62
2021/03/16 05:15:14;;;;;;;19.70;3.35;;;8.50;99.90;;;;;;5041979;28;20491;-62
2021/03/16 05:17:40;;;;;;;24.23;3.78;;;8.40;99.90;;;;;;5051977;28;20025;-63
2021/03/16 05:20:06;;;;;;;18.83;3.67;;;8.40;99.90;;;;;;5043378;28;20033;-62
2021/03/16 05:22:33;;;;;;;14.85;3.70;;;8.40;99.90;;;;;;5049773;28;20028;-62
2021/03/16 05:24:58;;;;;;;24.60;3.40;;;8.30;99.90;;;;;;5044036;28;20041;-62
2021/03/16 05:27:24;;;;;;;21.17;3.92;;;8.30;99.90;;;;;;5049463;28;20373;-62
2021/03/16 05:29:50;;;;;;;15.57;3.83;;;8.40;99.90;;;;;;5045327;28;20041;-62
2021/03/16 05:32:15;;;;;;;17.83;4.00;;;8.40;99.90;;;;;;5048138;28;20120;-62
2021/03/16 05:34:41;;;;;;;17.95;3.90;;;8.50;99.90;;;;;;5037003;28;20065;-61
2021/03/16 05:37:07;;;;;;;18.05;4.18;;;8.50;99.90;;;;;;5032118;28;20033;-61
2021/03/16 05:39:33;;;;;;;20.20;3.92;;;8.40;99.90;;;;;;5037699;28;20036;-62
2021/03/16 05:41:59;;;;;;;17.80;4.35;;;8.40;99.90;;;;;;5045161;28;20021;-61
2021/03/16 05:44:27;;;;;;;15.82;4.78;;;8.30;99.90;;;;;;5042228;28;20033;-61
2021/03/16 05:46:53;;;;;;;17.42;4.20;;;8.50;99.90;;;;;;5044721;28;20362;-62
2021/03/16 05:49:21;;;;;;;14.65;3.53;;;8.20;99.90;;;;;;5051784;28;20028;-63
2021/03/16 05:51:47;;;;;;;23.63;4.03;;;8.90;99.90;;;;;;5027905;28;20155;-64
2021/03/16 05:54:15;;;;;;;21.75;4.00;;;8.50;99.90;;;;;;5036753;28;20100;-63
2021/03/16 05:56:41;;;;;;;16.38;4.00;;;8.40;99.90;;;;;;5034092;28;20028;-63
2021/03/16 05:59:08;;;;;;;20.58;4.07;;;8.30;99.90;;;;;;5033392;28;20033;-63
2021/03/16 06:01:34;;;;;;;16.80;3.78;;;8.20;99.90;;;;;;5031328;28;20021;-64
2021/03/16 06:04:01;;;;;;;16.33;3.65;;;8.10;99.90;;;;;;5033642;28;20037;-64
2021/03/16 06:06:29;;;;;;;21.13;4.07;;;8.10;99.90;;;;;;5030496;28;20045;-63
2021/03/16 06:08:55;;;;;;;25.08;5.00;;;8.00;99.90;;;;;;5032245;28;20025;-62
2021/03/16 06:11:21;;;;;;;19.45;4.35;;;8.10;99.90;;;;;;5031338;28;20018;-63
2021/03/16 06:13:55;;;;;;;26.95;4.35;;;8.00;99.90;;;;;;5031939;28;20106;-62
2021/03/16 06:16:24;;;;;;;16.27;3.95;;;8.00;99.90;;;;;;5028968;28;20456;-63
2021/03/16 06:18:50;;;;;;;23.58;4.50;;;7.90;99.90;;;;;;5031765;28;20063;-63
2021/03/16 06:21:23;;;;;;;21.58;4.35;;;7.90;99.90;;;;;;5031607;28;20073;-62
2021/03/16 06:23:55;;;;;;;27.05;4.85;;;7.90;99.90;;;;;;5031270;28;20029;-63
2021/03/16 06:26:24;;;;;;;17.50;4.30;;;7.90;99.90;;;;;;5031678;28;20454;-62
2021/03/16 06:28:50;;;;;;;20.10;4.97;;;8.00;99.90;;;;;;5031724;28;20029;-63
2021/03/16 06:31:24;;;;;;;19.20;4.68;;;8.00;99.90;;;;;;5030418;28;20029;-62
2021/03/16 06:33:51;;;;;;;20.77;4.85;;;7.90;99.90;;;;;;5031770;28;20024;-63
2021/03/16 06:36:16;;;;;;;23.52;4.50;;;7.90;99.90;;;;;;5033147;28;20071;-63
2021/03/16 06:38:42;;;;;;;18.70;5.55;;;7.90;99.90;;;;;;5032373;28;20038;-63
2021/03/16 06:41:14;;;;;;;28.50;6.43;;;7.90;99.90;;;;;;5042070;28;20029;-63
2021/03/16 06:44:01;;;;;;;22.60;4.50;;;7.90;99.90;;;;;;5041034;28;20390;-63
2021/03/16 06:46:31;;;;;;;18.15;4.50;;;7.90;99.90;;;;;;5037532;28;20087;-63
2021/03/16 06:48:57;;;;;;;25.55;4.93;;;8.00;99.90;;;;;;5033779;28;20405;-63
2021/03/16 06:51:31;;;;;;;23.55;4.38;;;8.00;99.90;;;;;;5041698;28;20029;-63
2021/03/16 06:54:17;;;;;;;23.30;5.25;;;8.20;99.90;;;;;;5047934;28;20398;-63
2021/03/16 06:56:51;;;;;;;22.67;4.70;;;8.00;99.90;;;;;;5042084;28;20044;-63
2021/03/16 06:59:24;;;;;;;22.27;4.97;;;8.10;99.90;;;;;;5037218;28;20068;-63
2021/03/16 07:01:50;;;;;;;23.65;4.78;;;8.10;99.90;;;;;;5029438;28;20022;-63
2021/03/16 07:04:23;;;;;;;20.48;5.43;;;8.20;99.90;;;;;;5033055;28;20031;-63
2021/03/16 07:06:49;;;;;;;22.38;4.75;;;8.30;99.90;;;;;;5040235;28;20442;-62
2021/03/16 07:09:17;;;;;;;17.75;5.05;;;8.20;99.90;;;;;;5034134;28;20621;-62
2021/03/16 07:11:47;;;;;;;20.33;5.30;;;8.30;99.90;;;;;;5032388;28;20025;-62
2021/03/16 07:14:14;;;;;;;18.75;4.97;;;8.20;99.90;;;;;;5027948;28;20109;-62
2021/03/16 07:16:40;;;;;;;19.50;4.57;;;8.30;99.90;;;;;;5029897;28;20021;-62
2021/03/16 07:19:07;;;;;;;30.98;5.32;;;8.40;99.90;;;;;;5030667;28;20041;-62
2021/03/16 07:21:40;;;;;;;23.23;5.10;;;8.30;99.90;;;;;;5029260;28;20390;-62
2021/03/16 07:24:09;;;;;;;21.52;5.20;;;8.50;99.90;;;;;;5032605;28;20024;-62
2021/03/16 07:26:36;;;;;;;19.55;5.18;;;8.50;99.90;;;;;;5030677;28;20018;-61
2021/03/16 07:29:08;;;;;;;21.95;4.97;;;8.40;99.90;;;;;;5032181;28;20075;-62
2021/03/16 07:31:39;;;;;;;24.50;5.05;;;8.50;99.90;;;;;;5038332;28;20040;-63
2021/03/16 07:34:06;;;;;;;23.17;5.25;;;8.60;99.90;;;;;;5046750;28;20036;-63
2021/03/16 07:36:33;;;;;;;23.02;4.95;;;8.70;99.90;;;;;;5041024;28;20128;-63
2021/03/16 07:39:00;;;;;;;17.90;5.07;;;8.50;99.90;;;;;;5032348;28;20083;-63
2021/03/16 07:41:27;;;;;;;21.33;5.22;;;8.60;99.90;;;;;;5041983;28;20660;-63
2021/03/16 07:44:05;;;;;;;23.25;5.18;;;8.60;99.90;;;;;;5040061;28;20040;-62
2021/03/16 07:47:02;;;;;;;22.95;5.70;;;8.80;99.90;;;;;;5041668;28;20029;-63
2021/03/16 07:49:32;;;;;;;20.60;4.50;;;8.80;99.90;;;;;;5046227;28;20025;-63
2021/03/16 07:51:59;;;;;;;24.83;5.43;;;8.90;99.90;;;;;;5042018;28;20040;-63
2021/03/16 07:54:39;;;;;;;24.25;5.70;;;8.80;99.90;;;;;;5046640;28;20363;-63
2021/03/16 07:57:05;;;;;;;26.45;5.32;;;9.00;99.90;;;;;;5043961;28;20037;-63
2021/03/16 07:59:37;;;;;;;28.17;5.45;;;9.10;99.90;;;;;;5045237;28;20048;-63
2021/03/16 08:02:04;;;;;;;20.10;5.18;;;9.20;99.90;;;;;;5042926;28;20029;-63
2021/03/16 08:04:37;;;;;;;20.50;5.50;;;9.50;99.90;;;;;;5045335;28;20111;-63
2021/03/16 08:07:06;;;;;;;19.02;4.95;;;9.40;99.90;;;;;;5042639;28;20028;-63
2021/03/16 08:09:46;;;;;;;22.42;5.13;;;9.50;99.90;;;;;;5045272;28;20497;-63
2021/03/16 08:12:19;;;;;;;22.33;5.25;;;9.60;99.90;;;;;;5044303;28;20036;-63
2021/03/16 08:14:45;;;;;;;15.52;4.45;;;9.70;99.90;;;;;;5043249;28;20052;-63
2021/03/16 08:17:10;;;;;;;17.60;4.45;;;9.80;99.90;;;;;;5044056;28;20072;-64
2021/03/16 08:19:38;;;;;;;19.95;4.40;;;10.10;99.90;;;;;;5044345;28;20090;-62
2021/03/16 08:22:04;;;;;;;18.40;4.50;;;10.20;99.90;;;;;;5042178;28;20071;-62
2021/03/16 08:24:39;;;;;;;20.08;4.40;;;9.90;99.90;;;;;;5045301;28;20025;-61
2021/03/16 08:27:15;;;;;;;18.48;4.32;;;9.80;99.90;;;;;;5043175;28;20021;-61
2021/03/16 08:29:46;;;;;;;22.08;5.60;;;10.10;99.90;;;;;;5043185;28;20025;-62
2021/03/16 08:32:16;;;;;;;16.58;4.75;;;10.20;99.90;;;;;;5041320;28;20036;-61
2021/03/16 08:34:43;;;;;;;19.15;4.40;;;10.10;99.90;;;;;;5032553;28;20048;-61
2021/03/16 08:37:23;;;;;;;17.10;3.88;;;9.90;99.90;;;;;;5028728;28;20477;-61
2021/03/16 08:39:51;;;;;;;17.58;4.05;;;9.70;99.90;;;;;;5039474;28;20033;-61
2021/03/16 08:42:23;;;;;;;11.95;3.80;;;10.00;99.90;;;;;;5032371;28;20056;-61
2021/03/16 08:44:51;;;;;;;14.52;4.00;;;10.30;99.90;;;;;;5033890;28;20124;-61
2021/03/16 08:47:19;;;;;;;15.40;4.10;;;10.20;99.90;;;;;;5043975;28;20041;-61
2021/03/16 08:49:50;;;;;;;18.27;4.55;;;10.10;99.90;;;;;;5040763;28;20555;-63
2021/03/16 08:52:27;;;;;;;13.32;3.95;;;10.20;99.90;;;;;;5043352;28;20107;-61
2021/03/16 08:54:55;;;;;;;14.95;4.22;;;10.20;99.90;;;;;;5041747;28;20030;-61
2021/03/16 08:57:32;;;;;;;14.43;3.95;;;10.30;99.90;;;;;;5044761;28;20021;-61
2021/03/16 09:00:03;;;;;;;19.25;4.95;;;10.40;99.90;;;;;;5040921;28;20117;-61
2021/03/16 09:02:36;;;;;;;13.38;3.88;;;10.30;99.90;;;;;;5045064;28;20029;-61
2021/03/16 09:05:02;;;;;;;17.98;4.32;;;10.40;99.90;;;;;;5039919;28;20056;-62
2021/03/16 09:07:36;;;;;;;13.63;3.80;;;10.30;99.90;;;;;;5029146;28;20018;-62
2021/03/16 09:10:18;;;;;;;18.05;4.13;;;10.20;99.90;;;;;;5034361;28;20044;-62
2021/03/16 09:12:46;;;;;;;13.10;4.15;;;10.20;99.90;;;;;;5047675;28;20025;-61
2021/03/16 09:15:15;;;;;;;14.63;4.43;;;10.20;99.90;;;;;;5039120;28;20029;-62
2021/03/16 09:17:44;;;;;;;16.40;4.05;;;10.20;99.90;;;;;;5046958;28;20060;-61
2021/03/16 09:20:13;;;;;;;14.60;3.97;;;10.90;99.90;;;;;;5039513;28;20037;-61
2021/03/16 09:22:39;;;;;;;14.52;4.00;;;11.10;99.90;;;;;;5046042;28;20017;-61
2021/03/16 09:25:07;;;;;;;14.93;3.50;;;11.00;99.90;;;;;;5039697;28;20037;-61
2021/03/16 09:27:33;;;;;;;13.05;3.92;;;11.30;99.90;;;;;;5046130;28;20761;-61
2021/03/16 09:29:59;;;;;;;16.25;4.40;;;11.60;99.90;;;;;;5040545;28;20030;-62
2021/03/16 09:32:25;;;;;;;15.70;3.83;;;11.80;99.90;;;;;;5044808;28;20020;-61
2021/03/16 09:34:50;;;;;;;10.48;3.30;;;12.00;99.90;;;;;;5041716;28;20037;-62
2021/03/16 09:37:18;;;;;;;18.80;4.72;;;11.90;99.90;;;;;;5031923;28;20032;-61
2021/03/16 09:40:00;;;;;;;18.35;3.72;;;11.40;99.90;;;;;;5033640;28;20120;-61
2021/03/16 09:42:52;;;;;;;18.92;4.00;;;11.00;99.90;;;;;;5030704;28;20643;-62
2021/03/16 09:45:23;;;;;;;18.63;4.97;;;11.60;99.90;;;;;;5026356;28;20029;-62
2021/03/16 09:47:50;;;;;;;18.27;4.00;;;11.90;99.90;;;;;;5027160;28;20092;-61
2021/03/16 09:50:20;;;;;;;14.40;3.83;;;12.20;99.90;;;;;;5027343;28;20209;-61
2021/03/16 09:53:17;;;;;;;21.95;4.40;;;11.70;99.90;;;;;;5030654;28;20386;-60
2021/03/16 09:55:43;;;;;;;18.20;4.27;;;11.70;99.90;;;;;;5037495;28;20667;-60
2021/03/16 09:58:22;;;;;;;11.95;3.85;;;12.20;99.90;;;;;;5051002;28;20025;-60
2021/03/16 10:00:49;;;;;;;21.05;4.32;;;12.40;99.90;;;;;;5039365;28;20163;-60
2021/03/16 10:03:16;;;;;;;14.98;3.92;;;12.20;99.90;;;;;;5052380;28;20025;-61
2021/03/16 10:05:41;;;;;;;15.02;3.97;;;11.60;99.90;;;;;;5034150;28;20049;-61
2021/03/16 10:08:07;;;;;;;12.68;4.38;;;11.30;99.90;;;;;;5029409;28;20594;-62
2021/03/16 10:10:38;;;;;;;15.18;4.07;;;11.40;99.90;;;;;;5031835;28;20028;-60
2021/03/16 10:13:06;;;;;;;11.48;3.50;;;12.00;99.90;;;;;;5031836;28;20117;-61
2021/03/16 10:15:41;;;;;;;12.05;3.50;;;12.50;99.90;;;;;;5033586;28;20052;-60
2021/03/16 10:18:09;;;;;;;14.35;3.95;;;12.40;99.90;;;;;;5042336;28;20172;-61
2021/03/16 10:20:36;;;;;;;12.32;3.83;;;12.60;99.90;;;;;;5036574;28;20129;-60
2021/03/16 10:23:25;;;;;;;13.45;3.80;;;12.80;99.90;;;;;;5031907;28;20029;-60
2021/03/16 10:25:56;;;;;;;16.30;3.28;;;12.80;99.90;;;;;;5032262;28;20129;-60
2021/03/16 10:28:35;;;;;;;15.77;3.47;;;13.00;99.90;;;;;;5030973;28;20427;-61
2021/03/16 10:31:20;;;;;;;16.33;3.97;;;12.60;99.90;;;;;;5032393;28;20511;-61
2021/03/16 10:33:54;;;;;;;13.90;3.80;;;13.00;99.90;;;;;;5031925;28;20041;-60
2021/03/16 10:36:21;;;;;;;10.10;3.30;;;13.40;99.90;;;;;;5022324;28;20067;-61
2021/03/16 10:38:51;;;;;;;16.98;4.43;;;13.20;99.90;;;;;;5031661;28;20626;-61
2021/03/16 10:41:18;;;;;;;12.98;3.25;;;13.30;99.90;;;;;;5042036;28;20531;-60
2021/03/16 10:43:43;;;;;;;20.38;4.18;;;13.80;99.90;;;;;;5041553;28;20724;-60
2021/03/16 10:46:09;;;;;;;16.80;4.03;;;13.60;99.90;;;;;;5043838;28;20060;-60
2021/03/16 10:48:35;;;;;;;13.07;3.33;;;13.60;99.90;;;;;;5049305;28;20047;-60
2021/03/16 10:51:01;;;;;;;12.35;3.70;;;13.00;99.90;;;;;;5038866;28;20017;-60
2021/03/16 10:53:27;;;;;;;11.73;3.65;;;13.10;99.90;;;;;;5050435;28;20044;-61
2021/03/16 10:55:52;;;;;;;11.55;3.47;;;12.90;99.90;;;;;;5039445;28;20021;-61
2021/03/16 10:58:18;;;;;;;15.70;3.88;;;13.00;99.90;;;;;;5051507;28;20057;-61
2021/03/16 11:00:44;;;;;;;12.45;4.43;;;13.40;99.90;;;;;;5038093;28;20068;-60
2021/03/16 11:03:09;;;;;;;13.40;4.03;;;13.20;99.90;;;;;;5051257;28;20025;-61
2021/03/16 11:05:35;;;;;;;10.15;3.15;;;13.50;99.90;;;;;;5036568;28;20049;-60
2021/03/16 11:08:01;;;;;;;13.13;3.55;;;13.90;99.90;;;;;;5051146;28;20146;-60
2021/03/16 11:10:27;;;;;;;13.48;3.72;;;14.40;99.90;;;;;;5038856;28;20017;-60
2021/03/16 11:12:53;;;;;;;14.05;3.65;;;13.80;99.90;;;;;;5031321;28;20029;-61
2021/03/16 11:15:19;;;;;;;9.27;3.80;;;13.20;99.90;;;;;;5031988;28;20105;-61
2021/03/16 11:17:44;;;;;;;12.13;3.08;;;13.60;99.90;;;;;;5030090;28;20483;-60
2021/03/16 11:20:10;;;;;;;18.30;3.70;;;14.30;99.90;;;;;;5033224;28;20238;-60
2021/03/16 11:22:36;;;;;;;11.65;3.97;;;14.60;99.90;;;;;;5030575;28;20664;-60
2021/03/16 11:25:03;;;;;;;12.32;3.60;;;14.70;99.90;;;;;;5033177;28;20029;-61
2021/03/16 11:27:28;;;;;;;19.00;4.32;;;13.90;99.90;;;;;;5030461;28;20613;-60
2021/03/16 11:29:54;;;;;;;14.07;3.70;;;13.40;99.90;;;;;;5033202;28;20112;-60
2021/03/16 11:32:20;;;;;;;10.55;3.55;;;13.80;99.90;;;;;;5026414;28;20033;-60
2021/03/16 11:34:46;;;;;;;9.07;4.13;;;14.40;99.90;;;;;;5035936;28;20053;-60
2021/03/16 11:37:12;;;;;;;12.52;3.97;;;14.50;99.90;;;;;;5033632;28;20076;-61
2021/03/16 11:39:38;;;;;;;11.30;3.55;;;14.70;99.90;;;;;;5035613;28;20036;-61
2021/03/16 11:42:04;;;;;;;16.88;4.00;;;14.90;99.90;;;;;;5043540;28;20025;-60
2021/03/16 11:44:29;;;;;;;10.55;3.03;;;15.10;99.90;;;;;;5044455;28;20036;-60
2021/03/16 11:46:55;;;;;;;13.30;3.75;;;15.30;99.90;;;;;;5038362;28;20466;-60
2021/03/16 11:49:21;;;;;;;13.50;3.95;;;14.50;99.90;;;;;;5033405;28;20105;-60
2021/03/16 11:51:48;;;;;;;11.68;3.50;;;13.90;99.90;;;;;;5037919;28;20040;-61
2021/03/16 11:54:13;;;;;;;13.60;3.50;;;13.50;99.90;;;;;;5033795;28;20108;-61
2021/03/16 11:56:39;;;;;;;7.10;2.83;;;13.60;99.90;;;;;;5037926;28;20448;-60
2021/03/16 11:59:05;;;;;;;12.32;3.47;;;14.30;99.90;;;;;;5030738;28;20029;-61
2021/03/16 12:01:30;;;;;;;13.48;3.95;;;14.70;99.90;;;;;;5035279;28;20063;-61
2021/03/16 12:03:56;;;;;;;15.27;4.15;;;14.40;99.90;;;;;;5031182;28;20417;-60
2021/03/16 12:06:22;;;;;;;12.80;3.67;;;14.30;99.90;;;;;;5039517;28;20048;-61
2021/03/16 12:08:47;;;;;;;15.10;3.38;;;13.90;99.90;;;;;;5047577;28;20110;-61
2021/03/16 12:11:13;;;;;;;14.15;4.10;;;14.40;99.90;;;;;;5035557;28;20075;-60
2021/03/16 12:13:39;;;;;;;11.65;3.53;;;14.40;99.90;;;;;;5030467;28;20039;-62
2021/03/16 12:16:05;;;;;;;11.05;3.38;;;13.70;99.90;;;;;;5037976;28;20073;-60
2021/03/16 12:18:30;;;;;;;13.95;3.58;;;13.30;99.90;;;;;;5040798;28;20072;-61
2021/03/16 12:20:57;;;;;;;9.80;3.75;;;14.00;99.90;;;;;;5038223;28;20037;-61
2021/03/16 12:23:25;;;;;;;15.63;3.97;;;14.60;99.90;;;;;;5030666;28;20032;-61
2021/03/16 12:25:53;;;;;;;14.75;4.15;;;13.90;99.90;;;;;;5033626;28;20124;-61
2021/03/16 12:28:19;;;;;;;8.52;3.25;;;13.50;99.90;;;;;;5030206;28;20120;-61
2021/03/16 12:30:45;;;;;;;12.98;3.67;;;13.40;99.90;;;;;;5030214;28;20480;-60
2021/03/16 12:33:11;;;;;;;14.73;3.95;;;13.40;99.90;;;;;;5028412;28;20029;-60
2021/03/16 12:35:36;;;;;;;15.82;3.47;;;13.30;99.90;;;;;;5030285;28;20786;-61
2021/03/16 12:38:03;;;;;;;16.95;3.67;;;13.40;99.90;;;;;;5028549;28;20029;-61
2021/03/16 12:40:29;;;;;;;9.18;3.50;;;13.50;99.90;;;;;;5034503;28;20049;-61
2021/03/16 12:42:55;;;;;;;11.57;4.60;;;13.80;99.90;;;;;;5045642;28;20634;-61
2021/03/16 12:45:21;;;;;;;14.30;3.92;;;13.70;99.90;;;;;;5033807;28;20025;-61
2021/03/16 12:47:46;;;;;;;14.38;3.83;;;13.60;99.90;;;;;;5047263;28;20014;-61